Time;durP1;ratioP1;P1;durP2;ratioP2;P2;SDS_P1;SDS_P2;PMS_P1;PMS_P2;Temp;Humidity;BMP_temperature;BMP_pressure;BME280_temperature;BME280_humidity;BME280_pressure;Samples;Min_cycle;Max_cycle;Signal;HPM_P1;HPM_P2
2024/03/05 00:00:11;;;;;;;26.05;15.20;;;;;;;5.28;100.00;101071.72;5064468;28;20032;-79
2024/03/05 00:02:41;;;;;;;26.95;15.43;;;;;;;5.21;100.00;101075.91;5061001;28;20466;-78
2024/03/05 00:05:09;;;;;;;26.80;16.15;;;;;;;5.17;100.00;101083.63;5061244;28;20114;-78
2024/03/05 00:07:35;;;;;;;27.25;16.48;;;;;;;5.12;100.00;101070.38;5060992;28;20021;-79
2024/03/05 00:10:02;;;;;;;28.10;17.23;;;;;;;5.08;100.00;101073.75;5064184;28;20489;-79
2024/03/05 00:12:28;;;;;;;26.63;14.80;;;;;;;5.02;100.00;101070.94;5061799;28;20033;-79
2024/03/05 00:14:55;;;;;;;25.67;15.55;;;;;;;4.97;100.00;101077.78;5063296;28;20460;-80
2024/03/05 00:17:22;;;;;;;26.33;16.00;;;;;;;4.91;100.00;101069.72;5062671;28;20029;-80
2024/03/05 00:19:47;;;;;;;27.00;16.38;;;;;;;4.94;100.00;101080.31;5062107;28;20033;-80
2024/03/05 00:22:13;;;;;;;25.70;15.30;;;;;;;4.91;100.00;101077.56;5063628;28;20079;-80
2024/03/05 00:24:38;;;;;;;26.38;15.93;;;;;;;4.85;100.00;101067.81;5060405;28;20476;-80
2024/03/05 00:27:03;;;;;;;28.15;16.50;;;;;;;4.94;100.00;101064.59;5064239;28;20035;-80
2024/03/05 00:29:29;;;;;;;27.75;17.23;;;;;;;4.93;100.00;101062.81;5061304;28;20032;-80
2024/03/05 00:31:54;;;;;;;27.60;16.80;;;;;;;4.95;100.00;101068.97;5063116;28;20423;-80
2024/03/05 00:34:19;;;;;;;27.90;16.55;;;;;;;4.97;100.00;101067.31;5061541;28;20040;-79
2024/03/05 00:36:45;;;;;;;26.70;16.40;;;;;;;4.99;100.00;101073.47;5061772;28;20029;-80
2024/03/05 00:39:10;;;;;;;27.73;16.33;;;;;;;4.99;100.00;101073.47;5064004;28;20040;-80
2024/03/05 00:41:35;;;;;;;27.27;17.45;;;;;;;5.06;100.00;101071.06;5059227;28;20029;-81
2024/03/05 00:44:01;;;;;;;27.42;17.27;;;;;;;5.01;100.00;101074.38;5063716;28;20029;-80
2024/03/05 00:46:26;;;;;;;29.73;17.45;;;;;;;5.00;100.00;101073.50;5061502;28;20101;-80
2024/03/05 00:48:52;;;;;;;28.60;18.30;;;;;;;5.00;100.00;101070.91;5061078;28;20036;-80
2024/03/05 00:51:17;;;;;;;27.88;17.70;;;;;;;5.08;100.00;101068.50;5062007;28;20048;-80
2024/03/05 00:53:42;;;;;;;27.67;16.33;;;;;;;5.00;100.00;101067.41;5061013;28;20349;-80
2024/03/05 00:56:08;;;;;;;26.67;15.70;;;;;;;5.07;100.00;101067.63;5062715;28;20036;-80
2024/03/05 00:58:33;;;;;;;27.75;16.30;;;;;;;5.12;100.00;101065.13;5060650;28;20029;-80
2024/03/05 01:00:58;;;;;;;28.73;18.20;;;;;;;5.23;100.00;101052.38;5061651;28;20063;-81
2024/03/05 01:03:24;;;;;;;29.60;19.08;;;;;;;5.26;100.00;101067.28;5061715;28;20043;-80
2024/03/05 01:05:49;;;;;;;29.63;18.67;;;;;;;5.26;100.00;101065.56;5060783;28;20112;-80
2024/03/05 01:08:15;;;;;;;31.13;19.10;;;;;;;5.35;100.00;101062.31;5062863;28;20082;-81
2024/03/05 01:10:45;;;;;;;28.45;18.08;;;;;;;5.32;100.00;101064.84;5060614;28;20029;-81
2024/03/05 01:13:10;;;;;;;29.30;18.45;;;;;;;5.17;100.00;101066.19;5063871;28;20083;-80
2024/03/05 01:15:36;;;;;;;27.70;17.27;;;;;;;5.17;100.00;101063.56;5060274;28;20036;-80
2024/03/05 01:18:02;;;;;;;29.05;18.90;;;;;;;5.20;100.00;101066.25;5063340;28;20433;-80
2024/03/05 01:20:27;;;;;;;29.88;19.63;;;;;;;5.29;100.00;101062.16;5061333;28;20028;-81
2024/03/05 01:22:52;;;;;;;29.50;19.45;;;;;;;5.24;100.00;101062.91;5060804;28;20048;-80
2024/03/05 01:25:18;;;;;;;30.90;20.10;;;;;;;5.32;100.00;101062.22;5061277;28;20032;-80
2024/03/05 01:27:44;;;;;;;30.08;19.63;;;;;;;5.32;100.00;101063.09;5061254;28;20036;-80
2024/03/05 01:30:11;;;;;;;29.52;19.17;;;;;;;5.32;100.00;101051.75;5062237;28;20047;-81
2024/03/05 01:32:40;;;;;;;29.00;18.73;;;;;;;5.26;100.00;101057.69;5059109;28;20033;-81
2024/03/05 01:35:10;;;;;;;31.98;21.13;;;;;;;5.29;100.00;101052.53;5060352;28;20079;-80
2024/03/05 01:37:42;;;;;;;29.80;19.35;;;;;;;5.27;100.00;101048.09;5062683;28;20471;-81
2024/03/05 01:40:09;;;;;;;30.47;19.37;;;;;;;5.27;100.00;101046.38;5066413;28;20489;-80
2024/03/05 01:42:34;;;;;;;30.05;19.27;;;;;;;5.30;100.00;101048.16;5063689;28;20037;-81
2024/03/05 01:45:00;;;;;;;31.17;20.25;;;;;;;5.26;100.00;101043.69;5066314;28;20028;-81
2024/03/05 01:47:26;;;;;;;31.02;19.48;;;;;;;5.28;100.00;101052.50;5064652;28;20116;-80
2024/03/05 01:49:54;;;;;;;31.92;21.27;;;;;;;5.35;100.00;101052.72;5064213;28;20389;-79
2024/03/05 01:52:20;;;;;;;32.22;21.67;;;;;;;5.43;100.00;101045.06;5064057;28;20040;-79
2024/03/05 01:54:46;;;;;;;33.10;22.38;;;;;;;5.51;100.00;101056.66;5063252;28;20048;-79
2024/03/05 01:57:11;;;;;;;32.88;21.75;;;;;;;5.56;100.00;101052.44;5066862;28;20054;-79
2024/03/05 01:59:40;;;;;;;32.17;20.45;;;;;;;5.57;100.00;101056.81;5063282;28;20020;-79
2024/03/05 02:02:07;;;;;;;32.63;21.35;;;;;;;5.54;100.00;101053.25;5062964;28;20077;-80
2024/03/05 02:04:36;;;;;;;33.05;21.52;;;;;;;5.54;100.00;101054.13;5066552;28;20440;-79
2024/03/05 02:07:06;;;;;;;32.78;21.77;;;;;;;5.54;100.00;101048.00;5063384;28;20024;-80
2024/03/05 02:09:32;;;;;;;31.25;19.63;;;;;;;5.55;100.00;101045.41;5066120;28;20107;-80
2024/03/05 02:11:58;;;;;;;31.63;21.10;;;;;;;5.51;100.00;101047.91;5062742;28;20116;-80
2024/03/05 02:14:28;;;;;;;31.48;20.45;;;;;;;5.51;100.00;101043.53;5064882;28;20091;-79
2024/03/05 02:16:59;;;;;;;33.20;21.98;;;;;;;5.63;100.00;101045.63;5064397;28;20074;-79
2024/03/05 02:19:25;;;;;;;36.63;25.07;;;;;;;5.68;100.00;101040.50;5065274;28;20426;-79
2024/03/05 02:22:06;;;;;;;38.25;25.33;;;;;;;5.75;100.00;101037.19;5064829;28;20033;-79
2024/03/05 02:24:31;;;;;;;41.05;27.17;;;;;;;5.81;100.00;101031.22;5065677;28;20033;-79
2024/03/05 02:27:00;;;;;;;40.08;27.00;;;;;;;5.83;100.00;101037.41;5063826;28;20023;-79
2024/03/05 02:29:26;;;;;;;40.00;27.77;;;;;;;5.97;100.00;101041.34;5065082;28;20029;-79
2024/03/05 02:31:52;;;;;;;40.95;27.65;;;;;;;5.99;100.00;101041.38;5063175;28;20024;-79
2024/03/05 02:34:17;;;;;;;42.22;28.55;;;;;;;6.02;100.00;101036.22;5062458;28;20445;-79
2024/03/05 02:36:47;;;;;;;42.45;29.00;;;;;;;5.97;100.00;101043.03;5065754;28;20035;-79
2024/03/05 02:39:12;;;;;;;43.78;28.58;;;;;;;6.02;100.00;101052.81;5063263;28;20017;-79
2024/03/05 02:41:38;;;;;;;45.00;29.55;;;;;;;5.97;100.00;101050.88;5064437;28;20037;-79
2024/03/05 02:44:04;;;;;;;43.35;29.60;;;;;;;5.97;100.00;101049.22;5062694;28;20029;-79
2024/03/05 02:46:29;;;;;;;46.47;31.60;;;;;;;5.97;100.00;101049.22;5064968;28;20426;-79
2024/03/05 02:48:54;;;;;;;45.10;31.13;;;;;;;5.98;100.00;101056.22;5063246;28;20028;-80
2024/03/05 02:51:20;;;;;;;47.67;32.38;;;;;;;6.04;100.00;101045.00;5063856;28;20029;-80
2024/03/05 02:53:45;;;;;;;44.92;31.98;;;;;;;6.10;100.00;101046.06;5064847;28;20100;-81
2024/03/05 02:56:12;;;;;;;47.05;31.63;;;;;;;6.13;100.00;101045.25;5061210;28;20060;-81
2024/03/05 02:58:37;;;;;;;47.17;32.85;;;;;;;6.20;100.00;101049.78;5064854;28;20033;-81
2024/03/05 03:01:03;;;;;;;47.05;32.55;;;;;;;6.21;100.00;101042.81;5062173;28;20064;-81
2024/03/05 03:03:29;;;;;;;50.00;33.40;;;;;;;6.28;100.00;101045.63;5064548;28;20032;-81
2024/03/05 03:05:55;;;;;;;48.33;33.78;;;;;;;6.31;100.00;101043.94;5063536;28;20104;-80
2024/03/05 03:08:20;;;;;;;48.55;33.35;;;;;;;6.33;100.00;101047.47;5063627;28;20041;-81
2024/03/05 03:10:45;;;;;;;48.13;33.15;;;;;;;6.33;100.00;101045.72;5064479;28;20086;-81
2024/03/05 03:13:11;;;;;;;47.55;32.72;;;;;;;6.36;100.00;101048.44;5060966;28;20027;-79
2024/03/05 03:15:36;;;;;;;47.80;32.53;;;;;;;6.39;100.00;101055.50;5065269;28;20028;-79
2024/03/05 03:18:04;;;;;;;49.08;33.20;;;;;;;6.38;100.00;101054.63;5062261;28;20032;-79
2024/03/05 03:20:32;;;;;;;46.25;32.78;;;;;;;6.40;100.00;101045.03;5064516;28;20624;-80
2024/03/05 03:22:58;;;;;;;47.53;32.95;;;;;;;6.45;100.00;101055.66;5062556;28;20131;-79
2024/03/05 03:25:23;;;;;;;49.15;33.42;;;;;;;6.46;100.00;101052.19;5062145;28;20029;-79
2024/03/05 03:27:48;;;;;;;48.20;33.90;;;;;;;6.50;100.00;101047.91;5064062;28;20043;-79
2024/03/05 03:30:17;;;;;;;49.22;34.17;;;;;;;6.47;100.00;101051.34;5061980;28;20380;-79
2024/03/05 03:32:52;;;;;;;49.00;34.58;;;;;;;6.50;100.00;101046.16;5064489;28;20039;-78
2024/03/05 03:35:18;;;;;;;48.22;33.70;;;;;;;6.50;100.00;101047.91;5061168;28;20483;-79
2024/03/05 03:37:43;;;;;;;48.40;34.00;;;;;;;6.42;100.00;101043.34;5064409;28;20032;-79
2024/03/05 03:40:17;;;;;;;50.30;34.30;;;;;;;6.49;100.00;101044.38;5060077;28;20039;-79
2024/03/05 03:42:44;;;;;;;49.88;34.72;;;;;;;6.49;100.00;101049.63;5061640;28;20025;-80
2024/03/05 03:45:14;;;;;;;49.05;34.15;;;;;;;6.57;100.00;101053.34;5064592;28;20426;-80
2024/03/05 03:47:39;;;;;;;49.47;34.20;;;;;;;6.59;100.00;101049.00;5061142;28;20084;-81
2024/03/05 03:50:05;;;;;;;50.80;34.50;;;;;;;6.55;100.00;101047.16;5063486;28;20036;-81
2024/03/05 03:52:31;;;;;;;50.83;35.10;;;;;;;6.54;100.00;101050.63;5060545;28;20025;-80
2024/03/05 03:54:58;;;;;;;50.72;35.38;;;;;;;6.57;100.00;101048.06;5063232;28;20074;-81
2024/03/05 03:57:25;;;;;;;49.45;34.65;;;;;;;6.63;100.00;101055.22;5062979;28;20032;-81
2024/03/05 03:59:51;;;;;;;49.08;34.13;;;;;;;6.71;100.00;101065.91;5061621;28;20059;-81
2024/03/05 04:02:17;;;;;;;49.33;34.20;;;;;;;6.72;100.00;101065.06;5063374;28;20438;-81
2024/03/05 04:04:43;;;;;;;50.03;34.88;;;;;;;6.74;100.00;101059.00;5061306;28;20072;-81
2024/03/05 04:07:08;;;;;;;51.65;34.92;;;;;;;6.73;100.00;101058.97;5064385;28;20028;-82
2024/03/05 04:09:33;;;;;;;50.83;34.58;;;;;;;6.70;100.00;101048.34;5061172;28;20415;-81
2024/03/05 04:11:59;;;;;;;50.33;34.47;;;;;;;6.74;100.00;101052.84;5063546;28;20112;-81
2024/03/05 04:14:24;;;;;;;49.40;34.88;;;;;;;6.72;100.00;101054.56;5062304;28;20490;-81
2024/03/05 04:16:50;;;;;;;47.67;33.90;;;;;;;6.67;100.00;101064.97;5062170;28;20107;-81
2024/03/05 04:19:16;;;;;;;49.45;35.08;;;;;;;6.70;100.00;101053.59;5063857;28;20021;-81
2024/03/05 04:21:45;;;;;;;49.30;35.10;;;;;;;6.73;100.00;101058.97;5060753;28;20464;-81
2024/03/05 04:24:12;;;;;;;48.78;34.00;;;;;;;6.70;100.00;101062.41;5064092;28;20029;-81
2024/03/05 04:26:42;;;;;;;48.17;33.97;;;;;;;6.71;100.00;101063.28;5060876;28;20056;-81
2024/03/05 04:29:09;;;;;;;49.95;35.10;;;;;;;6.71;100.00;101068.53;5060661;28;20395;-81
2024/03/05 04:31:39;;;;;;;51.03;34.30;;;;;;;6.71;100.00;101065.91;5063854;28;20060;-81
2024/03/05 04:34:05;;;;;;;51.00;35.45;;;;;;;6.71;100.00;101071.16;5061136;28;20473;-81
2024/03/05 04:36:31;;;;;;;50.22;35.00;;;;;;;6.70;100.00;101070.28;5063199;28;20059;-81
2024/03/05 04:38:57;;;;;;;51.20;35.53;;;;;;;6.68;100.00;101077.22;5061858;28;20108;-81
2024/03/05 04:41:22;;;;;;;51.17;35.75;;;;;;;6.61;100.00;101075.28;5062308;28;20116;-81
2024/03/05 04:43:48;;;;;;;51.28;36.22;;;;;;;6.57;100.00;101076.09;5062961;28;20037;-80
2024/03/05 04:46:14;;;;;;;52.58;35.75;;;;;;;6.55;100.00;101077.78;5060853;28;20468;-81
2024/03/05 04:48:40;;;;;;;50.78;36.05;;;;;;;6.51;100.00;101071.56;5064130;28;20108;-80
2024/03/05 04:51:08;;;;;;;51.20;35.85;;;;;;;6.54;100.00;101082.16;5060589;28;20057;-79
2024/03/05 04:53:35;;;;;;;53.47;36.90;;;;;;;6.53;100.00;101079.50;5062179;28;20502;-81
2024/03/05 04:56:04;;;;;;;51.67;35.58;;;;;;;6.55;100.00;101090.91;5061242;28;20033;-80
2024/03/05 04:58:29;;;;;;;50.88;35.90;;;;;;;6.49;100.00;101091.66;5061701;28;20067;-81
2024/03/05 05:00:54;;;;;;;49.50;35.92;;;;;;;6.39;100.00;101094.88;5061793;28;20170;-81
2024/03/05 05:03:20;;;;;;;53.55;36.53;;;;;;;6.34;100.00;101092.16;5062055;28;20025;-79
2024/03/05 05:05:45;;;;;;;50.72;35.53;;;;;;;6.40;100.00;101094.06;5061881;28;20031;-79
2024/03/05 05:08:11;;;;;;;52.25;36.30;;;;;;;6.44;100.00;101095.91;5060540;28;20041;-81
2024/03/05 05:10:36;;;;;;;55.40;37.00;;;;;;;6.45;100.00;101089.78;5061660;28;20052;-81
2024/03/05 05:13:03;;;;;;;53.15;36.97;;;;;;;6.53;100.00;101083.00;5066868;28;20145;-81
2024/03/05 05:15:28;;;;;;;50.90;35.15;;;;;;;6.54;100.00;101083.88;5064037;28;20395;-81
2024/03/05 05:17:54;;;;;;;52.10;36.30;;;;;;;6.57;100.00;101087.47;5066212;28;20040;-81
2024/03/05 05:20:19;;;;;;;50.92;34.97;;;;;;;6.54;100.00;101087.41;5065076;28;20033;-81
2024/03/05 05:22:44;;;;;;;51.30;36.10;;;;;;;6.54;100.00;101079.53;5063335;28;20033;-81
2024/03/05 05:25:14;;;;;;;51.53;36.30;;;;;;;6.62;100.00;101092.84;5067456;28;20028;-81
2024/03/05 05:27:40;;;;;;;51.47;35.33;;;;;;;6.62;100.00;101091.09;5066470;28;20064;-81
2024/03/05 05:30:06;;;;;;;50.00;35.67;;;;;;;6.64;100.00;101085.91;5063853;28;20114;-80
2024/03/05 05:32:34;;;;;;;50.65;35.38;;;;;;;6.56;100.00;101083.06;5066717;28;20513;-79
2024/03/05 05:35:00;;;;;;;50.10;35.25;;;;;;;6.49;100.00;101089.03;5064609;28;20040;-79
2024/03/05 05:37:25;;;;;;;48.60;34.85;;;;;;;6.45;100.00;101080.19;5065526;28;20079;-79
2024/03/05 05:39:51;;;;;;;47.88;34.17;;;;;;;6.55;100.00;101085.66;5065946;28;20383;-80
2024/03/05 05:42:16;;;;;;;45.38;32.90;;;;;;;6.54;100.00;101081.25;5062908;28;20451;-80
2024/03/05 05:44:42;;;;;;;44.92;32.13;;;;;;;6.58;100.00;101084.00;5067200;28;20309;-80
2024/03/05 05:47:10;;;;;;;42.80;30.88;;;;;;;6.62;100.00;101088.47;5063693;28;20047;-80
2024/03/05 05:49:36;;;;;;;46.67;33.55;;;;;;;6.65;100.00;101089.41;5065783;28;20025;-79
2024/03/05 05:52:05;;;;;;;44.92;32.83;;;;;;;6.69;100.00;101088.63;5063008;28;20526;-80
2024/03/05 05:54:37;;;;;;;46.60;32.47;;;;;;;6.67;100.00;101093.84;5066018;28;20043;-80
2024/03/05 05:57:04;;;;;;;43.38;31.55;;;;;;;6.65;100.00;101092.91;5063852;28;20039;-79
2024/03/05 05:59:30;;;;;;;40.47;29.95;;;;;;;6.67;100.00;101091.22;5065739;28;20396;-79
2024/03/05 06:01:55;;;;;;;40.72;29.33;;;;;;;6.68;100.00;101095.59;5064829;28;20480;-80
2024/03/05 06:04:20;;;;;;;41.13;29.15;;;;;;;6.72;100.00;101086.09;5063173;28;20475;-80
2024/03/05 06:06:46;;;;;;;41.28;29.85;;;;;;;6.73;100.00;101086.13;5064748;28;20055;-80
2024/03/05 06:09:11;;;;;;;39.63;28.88;;;;;;;6.76;100.00;101088.81;5063289;28;20063;-80
2024/03/05 06:11:38;;;;;;;36.10;26.83;;;;;;;6.78;100.00;101096.72;5065140;28;20111;-81
2024/03/05 06:14:04;;;;;;;37.45;27.08;;;;;;;6.73;100.00;101093.13;5063502;28;20138;-80
2024/03/05 06:16:31;;;;;;;36.80;27.08;;;;;;;6.73;100.00;101099.25;5064192;28;20033;-80
2024/03/05 06:18:56;;;;;;;35.50;25.35;;;;;;;6.70;100.00;101099.19;5064415;28;20028;-79
2024/03/05 06:21:22;;;;;;;35.15;25.52;;;;;;;6.72;100.00;101100.09;5064142;28;20545;-79
2024/03/05 06:23:47;;;;;;;33.28;23.58;;;;;;;6.49;100.00;101101.28;5064888;28;20040;-79
2024/03/05 06:26:13;;;;;;;33.97;23.67;;;;;;;6.67;100.00;101096.47;5061681;28;20044;-79
2024/03/05 06:28:38;;;;;;;32.85;23.08;;;;;;;6.69;100.00;101092.13;5065190;28;20032;-81
2024/03/05 06:31:04;;;;;;;34.30;23.27;;;;;;;6.73;100.00;101101.88;5063216;28;20032;-81
2024/03/05 06:33:30;;;;;;;33.45;23.55;;;;;;;6.77;100.00;101109.00;5064905;28;20472;-82
2024/03/05 06:35:57;;;;;;;35.17;23.70;;;;;;;6.77;100.00;101109.00;5064325;28;20464;-81
2024/03/05 06:38:23;;;;;;;32.45;22.10;;;;;;;6.80;100.00;101108.16;5063940;28;20115;-81
2024/03/05 06:40:49;;;;;;;38.20;27.00;;;;;;;6.76;100.00;101111.59;5064883;28;20100;-81
2024/03/05 06:43:20;;;;;;;37.47;26.98;;;;;;;6.79;100.00;101116.91;5062704;28;20032;-82
2024/03/05 06:45:48;;;;;;;37.65;26.00;;;;;;;6.80;100.00;101114.31;5065287;28;20033;-82
2024/03/05 06:48:22;;;;;;;38.17;26.40;;;;;;;6.79;100.00;101116.91;5045490;28;20494;-81
2024/03/05 06:50:52;;;;;;;37.80;26.77;;;;;;;6.80;100.00;101113.41;5064923;28;20043;-81
2024/03/05 06:58:47;;;;;;;31.83;20.58;;;;;;;6.81;100.00;101123.06;5062933;28;20541;-81
2024/03/05 07:01:13;;;;;;;29.67;19.00;;;;;;;6.83;100.00;101124.03;5065259;28;20087;-81
2024/03/05 07:03:41;;;;;;;30.95;20.95;;;;;;;6.81;100.00;101125.69;5062047;28;20115;-81
2024/03/05 07:06:07;;;;;;;29.30;19.20;;;;;;;6.78;100.00;101121.25;5065274;28;20086;-81
2024/03/05 07:08:34;;;;;;;33.63;21.20;;;;;;;6.76;100.00;101127.34;5062602;28;20037;-81
2024/03/05 07:11:00;;;;;;;29.17;18.63;;;;;;;6.74;100.00;101136.91;5062785;28;20107;-81
2024/03/05 07:13:28;;;;;;;27.98;17.10;;;;;;;6.73;100.00;101127.28;5063646;28;20116;-81
2024/03/05 07:15:54;;;;;;;27.95;17.77;;;;;;;6.69;100.00;101126.28;5063375;28;20021;-81
2024/03/05 07:18:19;;;;;;;27.20;17.40;;;;;;;6.57;100.00;101132.13;5064236;28;20039;-81
2024/03/05 07:20:45;;;;;;;27.95;17.38;;;;;;;6.52;100.00;101127.63;5061011;28;20166;-80
2024/03/05 07:23:11;;;;;;;26.45;17.08;;;;;;;6.55;100.00;101132.94;5065036;28;20047;-80
2024/03/05 07:25:38;;;;;;;28.35;17.25;;;;;;;6.54;100.00;101132.06;5061692;28;20025;-80
2024/03/05 07:28:04;;;;;;;27.58;17.02;;;;;;;6.56;100.00;101137.34;5064763;28;20037;-80
2024/03/05 07:30:30;;;;;;;28.52;17.83;;;;;;;6.61;100.00;101139.25;5062694;28;20218;-80
2024/03/05 07:32:56;;;;;;;29.60;18.95;;;;;;;6.68;100.00;101142.03;5063085;28;20032;-80
2024/03/05 07:35:22;;;;;;;29.63;18.42;;;;;;;6.72;100.00;101152.66;5063773;28;20114;-80
2024/03/05 07:37:48;;;;;;;29.15;19.30;;;;;;;6.69;100.00;101135.94;5062091;28;20395;-79
2024/03/05 07:40:17;;;;;;;30.75;21.23;;;;;;;6.75;100.00;101138.69;5064815;28;20090;-79
2024/03/05 07:42:47;;;;;;;34.13;24.83;;;;;;;6.81;100.00;101141.47;5061456;28;20035;-81
2024/03/05 07:45:14;;;;;;;34.08;23.58;;;;;;;6.86;100.00;101145.13;5061240;28;20052;-80
2024/03/05 07:47:39;;;;;;;35.58;25.35;;;;;;;6.97;100.00;101142.72;5061246;28;20032;-80
2024/03/05 07:50:12;;;;;;;33.55;23.10;;;;;;;6.97;100.00;101138.38;5064361;28;20391;-80
2024/03/05 07:52:45;;;;;;;;;;;;;;;7.19;100.00;101132.72;5061622;28;20071;-80
2024/03/05 07:55:14;;;;;;;32.22;22.30;;;;;;;7.08;100.00;101145.63;5059863;28;19926;-81
2024/03/05 07:57:41;;;;;;;31.65;21.77;;;;;;;7.06;100.00;101152.56;5061082;28;20074;-80
2024/03/05 08:00:09;;;;;;;31.80;22.35;;;;;;;7.09;100.00;101152.66;5064800;28;20498;-80
2024/03/05 08:02:40;;;;;;;32.25;22.65;;;;;;;7.16;100.00;101154.56;5061291;28;20060;-81
2024/03/05 08:05:05;;;;;;;32.58;22.50;;;;;;;7.17;100.00;101156.34;5063938;28;20070;-80
2024/03/05 08:07:34;;;;;;;32.05;21.77;;;;;;;7.14;100.00;101146.66;5061018;28;20041;-81
2024/03/05 08:10:06;;;;;;;32.03;21.83;;;;;;;7.17;100.00;101155.47;5063416;28;20071;-80
2024/03/05 08:12:36;;;;;;;31.58;22.23;;;;;;;7.16;100.00;101157.19;5061768;28;20043;-81
2024/03/05 08:15:18;;;;;;;31.00;21.05;;;;;;;7.19;100.00;101161.66;5063399;28;20438;-80
2024/03/05 08:17:47;;;;;;;33.97;22.13;;;;;;;7.22;100.00;101169.59;5061178;28;20029;-82
2024/03/05 08:20:14;;;;;;;32.55;21.92;;;;;;;7.20;100.00;101158.19;5063638;28;20028;-82
2024/03/05 08:22:40;;;;;;;31.02;21.08;;;;;;;7.21;100.00;101157.28;5063378;28;20044;-81
2024/03/05 08:25:18;;;;;;;32.72;22.98;;;;;;;7.27;100.00;101157.47;5061312;28;20086;-81
2024/03/05 08:27:45;;;;;;;34.10;24.55;;;;;;;7.31;100.00;101160.19;5060987;28;20029;-82
2024/03/05 08:30:15;;;;;;;33.72;23.77;;;;;;;7.28;100.00;101164.47;5060804;28;20356;-82
2024/03/05 08:32:40;;;;;;;36.30;26.83;;;;;;;7.36;100.00;101172.56;5060712;28;20143;-81
2024/03/05 08:35:09;;;;;;;34.50;25.17;;;;;;;7.33;100.00;101178.63;5062629;28;20047;-81
2024/03/05 08:37:35;;;;;;;36.03;26.35;;;;;;;7.35;100.00;101173.41;5061142;28;20033;-81
2024/03/05 08:40:00;;;;;;;35.70;25.50;;;;;;;7.32;100.00;101179.47;5062924;28;20384;-81
2024/03/05 08:42:26;;;;;;;35.45;25.40;;;;;;;7.33;100.00;101184.78;5062521;28;20058;-81
2024/03/05 08:44:51;;;;;;;34.03;23.95;;;;;;;7.37;100.00;101183.13;5061591;28;20033;-81
2024/03/05 08:47:17;;;;;;;34.67;23.60;;;;;;;7.35;100.00;101194.44;5067854;28;20029;-82
2024/03/05 08:49:42;;;;;;;34.75;23.85;;;;;;;7.37;100.00;101190.09;5065076;28;20044;-81
2024/03/05 08:52:07;;;;;;;33.10;23.60;;;;;;;7.44;100.00;101186.75;5067754;28;20028;-81
2024/03/05 08:54:34;;;;;;;30.85;22.00;;;;;;;7.43;100.00;101192.91;5065365;28;20033;-81
2024/03/05 08:57:00;;;;;;;31.33;21.75;;;;;;;7.43;100.00;101191.13;5067436;28;20119;-81
2024/03/05 08:59:26;;;;;;;30.65;20.15;;;;;;;7.43;100.00;101191.13;5065785;28;20535;-81
2024/03/05 09:01:53;;;;;;;27.75;18.80;;;;;;;7.35;100.00;101195.31;5065206;28;20045;-81
2024/03/05 09:04:23;;;;;;;28.02;18.45;;;;;;;7.37;100.00;101190.09;5066223;28;20037;-81
2024/03/05 09:06:49;;;;;;;28.45;18.77;;;;;;;7.36;100.00;101196.22;5063649;28;20468;-80
2024/03/05 09:09:16;;;;;;;28.83;18.42;;;;;;;7.31;100.00;101196.09;5067503;28;20033;-79
2024/03/05 09:11:41;;;;;;;26.98;17.98;;;;;;;7.23;100.00;101202.94;5064473;28;20100;-79
2024/03/05 09:14:07;;;;;;;27.90;18.30;;;;;;;7.10;100.00;101205.25;5067300;28;20480;-79
2024/03/05 09:16:33;;;;;;;28.35;18.63;;;;;;;7.03;100.00;101199.81;5064969;28;20032;-79
2024/03/05 09:18:58;;;;;;;28.58;19.10;;;;;;;6.97;100.00;101209.34;5065031;28;20035;-80
2024/03/05 09:21:24;;;;;;;27.48;17.80;;;;;;;6.91;100.00;101210.94;5066026;28;20047;-80
2024/03/05 09:23:50;;;;;;;27.15;18.30;;;;;;;6.89;100.00;101203.00;5064845;28;20068;-79
2024/03/05 09:26:15;;;;;;;28.55;18.98;;;;;;;6.90;100.00;101204.78;5067351;28;20439;-79
2024/03/05 09:28:41;;;;;;;28.30;18.75;;;;;;;6.70;100.00;101206.91;5064164;28;20060;-79
2024/03/05 09:31:06;;;;;;;27.20;17.63;;;;;;;6.75;100.00;101209.66;5067104;28;20502;-80
2024/03/05 09:33:32;;;;;;;27.17;17.13;;;;;;;6.74;100.00;101211.41;5064801;28;20037;-79
2024/03/05 09:35:58;;;;;;;28.10;17.40;;;;;;;6.74;100.00;101208.78;5065477;28;20029;-79
2024/03/05 09:38:24;;;;;;;25.88;16.80;;;;;;;6.72;100.00;101209.56;5066242;28;20036;-79
2024/03/05 09:40:51;;;;;;;26.67;18.17;;;;;;;6.79;100.00;101211.50;5064321;28;20051;-79
2024/03/05 09:43:21;;;;;;;28.52;18.10;;;;;;;6.89;100.00;101217.91;5048725;28;20021;-80
2024/03/05 09:45:48;;;;;;;25.70;16.65;;;;;;;7.00;100.00;101220.78;5064030;28;20115;-80
2024/03/05 09:48:18;;;;;;;25.92;16.27;;;;;;;7.08;100.00;101214.00;5066917;28;20386;-80
2024/03/05 09:50:47;;;;;;;26.90;16.67;;;;;;;7.11;100.00;101216.69;5063466;28;20033;-80
2024/03/05 09:53:13;;;;;;;26.83;16.77;;;;;;;7.19;100.00;101214.22;5063505;28;20075;-80
2024/03/05 09:55:39;;;;;;;26.60;16.20;;;;;;;7.29;100.00;101219.72;5067145;28;20394;-79
2024/03/05 09:58:12;;;;;;;26.17;16.27;;;;;;;7.23;100.00;101224.84;5062786;28;20028;-79
2024/03/05 10:00:37;;;;;;;;;;;;;;;7.20;100.00;101218.66;5066633;28;20029;-80
2024/03/05 10:03:03;;;;;;;25.52;15.80;;;;;;;7.23;100.00;101231.88;5064378;28;19923;-79
2024/03/05 10:05:29;;;;;;;25.23;15.77;;;;;;;7.35;100.00;101228.63;5065155;28;20052;-79
2024/03/05 10:07:54;;;;;;;24.85;15.82;;;;;;;7.39;100.00;101234.00;5065210;28;20550;-78
2024/03/05 10:10:21;;;;;;;26.67;16.83;;;;;;;7.46;100.00;101237.69;5062643;28;20124;-79
2024/03/05 10:12:46;;;;;;;25.02;14.95;;;;;;;7.45;100.00;101235.88;5062034;28;20134;-80
2024/03/05 10:15:21;;;;;;;25.10;15.52;;;;;;;7.43;100.00;101242.88;5065551;28;20049;-80
2024/03/05 10:17:52;;;;;;;26.08;15.40;;;;;;;7.42;100.00;101231.44;5063286;28;20013;-80
2024/03/05 10:20:27;;;;;;;27.02;15.65;;;;;;;7.43;100.00;101240.25;5065069;28;20054;-81
2024/03/05 10:22:54;;;;;;;25.30;15.30;;;;;;;7.48;100.00;101235.97;5062907;28;20055;-80
2024/03/05 10:25:20;;;;;;;25.58;15.85;;;;;;;7.62;100.00;101239.81;5065023;28;20383;-80
2024/03/05 10:27:47;;;;;;;25.85;15.20;;;;;;;7.70;100.00;101226.81;5062958;28;20083;-81
2024/03/05 10:30:36;;;;;;;25.83;15.27;;;;;;;7.87;100.00;101234.19;5064588;28;20052;-81
2024/03/05 10:33:03;;;;;;;24.55;14.65;;;;;;;8.01;100.00;101231.00;5064246;28;20025;-80
2024/03/05 10:35:29;;;;;;;25.33;14.35;;;;;;;8.14;100.00;101239.13;5065034;28;20078;-80
2024/03/05 10:38:08;;;;;;;24.75;14.27;;;;;;;8.23;100.00;101231.44;5063293;28;20039;-80
2024/03/05 10:40:35;;;;;;;24.48;13.30;;;;;;;8.24;100.00;101234.97;5064737;28;20382;-80
2024/03/05 10:43:04;;;;;;;24.95;14.05;;;;;;;8.25;100.00;101242.88;5063644;28;20106;-80
2024/03/05 10:45:41;;;;;;;23.85;13.95;;;;;;;8.30;100.00;101238.63;5064656;28;20028;-79
2024/03/05 10:48:07;;;;;;;22.90;12.48;;;;;;;8.33;100.00;101246.56;5064719;28;20079;-80
2024/03/05 10:50:36;;;;;;;22.58;12.07;;;;;;;8.33;100.00;101241.31;5064181;28;20028;-78
2024/03/05 10:53:04;;;;;;;23.23;12.20;;;;;;;8.41;100.00;101244.09;5063941;28;20388;-78
2024/03/05 10:55:33;;;;;;;22.92;11.15;;;;;;;8.47;100.00;101244.22;5064464;28;20029;-80
2024/03/05 11:00:39;;;;;;;22.65;10.88;;;;;;;8.61;100.00;101247.13;5063474;28;20033;-81
2024/03/05 11:03:10;;;;;;;20.98;10.35;;;;;;;8.73;100.00;101249.13;5063807;28;20427;-80
2024/03/05 11:05:47;;;;;;;22.00;10.18;;;;;;;8.79;100.00;101256.25;5063548;28;20035;-80
2024/03/05 11:08:19;;;;;;;21.27;9.80;;;;;;;8.80;100.00;101245.72;5064970;28;20024;-80
2024/03/05 11:10:51;;;;;;;20.92;9.98;;;;;;;8.84;100.00;101255.47;5062377;28;20025;-80
2024/03/05 11:16:00;;;;;;;22.25;9.68;;;;;;;8.87;100.00;101254.66;5318181;22;20490;-70
2024/03/05 11:18:36;;;;;;;21.05;9.45;;;;;;;8.85;100.00;101256.34;5044647;28;20104;-80